Fuji Maru — JD2030 — position and weather

sailwx.info

Track history (hours):
 
Tides and Currents Weather Stations Pressure Air Temp Water Temp Dewpoint Dewpoint Depression Visibility Wind Speed Wind Dir Waves Ship Positions

Fuji Maru

Last reported at 2018-Feb-18 13:49 UTC. Time now 2018-Feb-18 18:29 UTC.
Position N 35°38' E 139°45'.

Length 38 m; draft 4.4 m.

Type: Tug. MMSI: 431001102.

Date/timePositionNaut miles runAvg speedWind from/ knotsBaromVisibWave heightAir tempDewpointWater temp
2018-Feb-18 13:49N 35°38' E 139°45'3 8.0
2018-Feb-18 13:30N 35°36' E 139°47'0 0.4
2018-Feb-18 12:54N 35°36' E 139°46'1 3.2
2018-Feb-18 12:29N 35°37' E 139°46'1 0.7
2018-Feb-18 11:04N 35°38' E 139°45'1 9.1
2018-Feb-18 11:00N 35°38' E 139°46'1 2.5
2018-Feb-18 10:30N 35°37' E 139°47'2 3.6
2018-Feb-18 10:01N 35°35' E 139°48'2 3.3
2018-Feb-18 09:31N 35°34' E 139°49'3 6.6
2018-Feb-18 09:00N 35°36' E 139°46'1 1.3
2018-Feb-18 08:30N 35°37' E 139°46'1 1.3
2018-Feb-18 08:00N 35°38' E 139°46'1 2.9
2018-Feb-18 07:30N 35°36' E 139°46'1 2.4
2018-Feb-18 07:00N 35°37' E 139°46'1 0.1
2018-Feb-18 00:33N 35°38' E 139°45'0 0.0
2018-Feb-17 22:35N 35°38' E 139°45'0 0.0
2018-Feb-17 22:14N 35°38' E 139°45'0 0.0
2018-Feb-17 21:52N 35°38' E 139°45'0 0.0
2018-Feb-17 21:25N 35°38' E 139°45'0 0.0
2018-Feb-17 20:45N 35°38' E 139°45'0 0.0
2018-Feb-17 20:27N 35°38' E 139°45'0 0.0
2018-Feb-17 20:00N 35°38' E 139°45'0 0.0
2018-Feb-17 19:30N 35°38' E 139°45'0 0.0
2018-Feb-17 13:28N 35°38' E 139°46'2 4.2
2018-Feb-17 13:00N 35°36' E 139°46'1 0.4
2018-Feb-17 11:21N 35°36' E 139°46'2 4.4
2018-Feb-17 10:57N 35°37' E 139°47'1 2.2
2018-Feb-17 10:29N 35°36' E 139°48'1 1.4
2018-Feb-17 10:00N 35°36' E 139°47'1 3.0
2018-Feb-17 09:30N 35°38' E 139°46'1 1.3
2018-Feb-17 08:56N 35°38' E 139°45'0 0.0
2018-Feb-17 08:30N 35°38' E 139°45'0 0.0
2018-Feb-17 07:59N 35°38' E 139°45'0 0.0
2018-Feb-17 07:30N 35°38' E 139°45'0 0.0
2018-Feb-17 07:00N 35°38' E 139°45'0 0.0
2018-Feb-17 06:28N 35°38' E 139°45'0 0.0
2018-Feb-17 05:59N 35°38' E 139°45'0 0.0
2018-Feb-17 05:29N 35°38' E 139°45'0 0.0
2018-Feb-17 04:59N 35°38' E 139°45'0 0.0
2018-Feb-17 04:30N 35°38' E 139°45'0 0.0
2018-Feb-17 04:00N 35°38' E 139°45'0 0.0
2018-Feb-17 03:31N 35°38' E 139°45'0 0.0
2018-Feb-17 03:00N 35°38' E 139°45'0 0.0
2018-Feb-17 02:25N 35°38' E 139°45'0 0.0
2018-Feb-17 01:59N 35°38' E 139°45'0 0.0
2018-Feb-17 01:29N 35°38' E 139°45'0 0.0
2018-Feb-17 00:59N 35°38' E 139°45'0 0.0
2018-Feb-17 00:29N 35°38' E 139°45'0 0.0
2018-Feb-16 23:58N 35°38' E 139°45'0 0.0
2018-Feb-16 23:20N 35°38' E 139°45'0 0.0
2018-Feb-16 22:57N 35°38' E 139°45'0 0.0
2018-Feb-16 22:29N 35°38' E 139°45'2 3.6
2018-Feb-16 21:59N 35°37' E 139°47'1 2.6
2018-Feb-16 21:30N 35°35' E 139°47'2 4.8
2018-Feb-16 21:00N 35°34' E 139°50'3 6.6
2018-Feb-16 20:30N 35°36' E 139°46'1 2.2
2018-Feb-16 20:00N 35°37' E 139°46'1 2.3
2018-Feb-16 19:29N 35°38' E 139°45'0 0.0
2018-Feb-16 19:00N 35°38' E 139°45'0 0.0
2018-Feb-16 18:30N 35°38' E 139°45'0 0.0
2018-Feb-16 18:00N 35°38' E 139°45'0 0.0
2018-Feb-16 11:10N 35°38' E 139°45'0 0.0
2018-Feb-16 09:16N 35°38' E 139°45'0 0.0
2018-Feb-16 08:34N 35°38' E 139°45'0 0.0
2018-Feb-16 08:28N 35°38' E 139°45'0 0.0
2018-Feb-16 05:35N 35°38' E 139°45'0 0.0
2018-Feb-16 05:23N 35°38' E 139°45'0 0.0
2018-Feb-16 02:43N 35°38' E 139°45'0 0.0
2018-Feb-16 02:26N 35°38' E 139°45'0 0.0
2018-Feb-16 00:51N 35°38' E 139°45'0 0.0
2018-Feb-16 00:19N 35°38' E 139°45'0 0.0
2018-Feb-15 23:14N 35°38' E 139°45'0 0.0
2018-Feb-15 22:56N 35°38' E 139°45'0 0.0
2018-Feb-15 22:28N 35°38' E 139°45'0 0.0
2018-Feb-15 21:58N 35°38' E 139°45'1 2.8
2018-Feb-15 21:30N 35°37' E 139°46'1 1.6
2018-Feb-15 21:00N 35°36' E 139°47'1 2.7
2018-Feb-15 20:30N 35°38' E 139°46'1 1.1
2018-Feb-15 19:53N 35°38' E 139°45'0 0.0
2018-Feb-15 19:30N 35°38' E 139°45'0 0.0
2018-Feb-15 18:59N 35°38' E 139°45'0 0.0
2018-Feb-15 17:52N 35°38' E 139°45'0 0.0
2018-Feb-15 13:20N 35°38' E 139°45'0 0.0
2018-Feb-15 12:52N 35°38' E 139°45'0 0.0
2018-Feb-15 12:14N 35°38' E 139°45'0 0.0
2018-Feb-15 11:16N 35°38' E 139°45'0 0.0
2018-Feb-15 10:59N 35°38' E 139°45'0 0.0
2018-Feb-15 10:20N 35°38' E 139°45'0 0.0
2018-Feb-15 09:59N 35°38' E 139°45'0 0.0
2018-Feb-15 09:30N 35°38' E 139°45'0 0.0
2018-Feb-15 06:16N 35°38' E 139°45'0 0.0
2018-Feb-15 06:00N 35°38' E 139°45'0 0.0
2018-Feb-15 05:30N 35°38' E 139°45'0 0.0
2018-Feb-15 01:53N 35°38' E 139°45'0 0.0
2018-Feb-14 23:32N 35°38' E 139°45'0 8.2
2018-Feb-14 23:30N 35°38' E 139°46'2 3.3
2018-Feb-14 23:00N 35°37' E 139°47'3 5.1
2018-Feb-14 22:30N 35°34' E 139°48'2 3.6
2018-Feb-14 22:01N 35°35' E 139°47'0 0.2
2018-Feb-14 20:41N 35°36' E 139°46'1 3.5
2018-Feb-14 20:30N 35°36' E 139°47'1 1.0
2018-Feb-14 19:57N 35°36' E 139°46'2 4.3
2018-Feb-14 19:30N 35°38' E 139°46'1 0.7
2018-Feb-14 18:41N 35°38' E 139°45'0 0.0
2018-Feb-14 18:19N 35°38' E 139°45'0 0.0
2018-Feb-14 17:58N 35°38' E 139°45'0 0.0
2018-Feb-14 17:18N 35°38' E 139°45'0 0.0
2018-Feb-14 16:50N 35°38' E 139°45'0 0.0
2018-Feb-14 16:23N 35°38' E 139°45'0 0.0
2018-Feb-14 13:51N 35°38' E 139°45'0 0.0
2018-Feb-14 13:24N 35°38' E 139°45'0 0.0
2018-Feb-14 12:45N 35°38' E 139°45'0 0.0
2018-Feb-14 12:24N 35°38' E 139°45'0 0.0
2018-Feb-14 06:57N 35°38' E 139°45'0 0.0
2018-Feb-14 06:26N 35°38' E 139°45'0 0.0
2018-Feb-14 05:59N 35°38' E 139°45'0 0.0
2018-Feb-14 05:28N 35°38' E 139°45'0 0.0
2018-Feb-14 04:57N 35°38' E 139°45'0 0.0
2018-Feb-14 04:29N 35°38' E 139°45'0 0.0
2018-Feb-14 03:58N 35°38' E 139°45'0 0.0
2018-Feb-14 03:26N 35°38' E 139°45'0 0.0
2018-Feb-14 02:57N 35°38' E 139°45'0 0.0
2018-Feb-14 02:29N 35°38' E 139°45'0 0.0
2018-Feb-14 02:00N 35°38' E 139°45'0 0.0
2018-Feb-14 01:30N 35°38' E 139°45'0 0.0
2018-Feb-14 00:56N 35°38' E 139°45'0 0.0
2018-Feb-14 00:25N 35°38' E 139°45'0 0.0
2018-Feb-13 23:52N 35°38' E 139°45'0 0.0
2018-Feb-13 23:30N 35°38' E 139°45'0 0.0
2018-Feb-13 23:00N 35°38' E 139°45'0 0.0
2018-Feb-13 22:28N 35°38' E 139°45'0 0.0
2018-Feb-13 21:58N 35°38' E 139°45'0 0.0
2018-Feb-13 21:30N 35°38' E 139°45'0 0.0
2018-Feb-13 20:59N 35°38' E 139°45'0 0.0
2018-Feb-13 20:30N 35°38' E 139°45'0 0.0
2018-Feb-13 19:59N 35°38' E 139°45'0 0.0
2018-Feb-13 19:30N 35°38' E 139°45'0 0.0
2018-Feb-13 19:00N 35°38' E 139°45'0 0.0
2018-Feb-13 18:29N 35°38' E 139°45'0 0.0
2018-Feb-13 17:59N 35°38' E 139°45'0 0.0
2018-Feb-13 17:30N 35°38' E 139°45'0 0.0
2018-Feb-13 17:00N 35°38' E 139°45'2 4.5
2018-Feb-13 16:30N 35°36' E 139°46'0 0.4
2018-Feb-13 15:56N 35°36' E 139°46'2 4.8
2018-Feb-13 15:30N 35°35' E 139°48'2 3.8
2018-Feb-13 15:00N 35°36' E 139°46'0 0.0
2018-Feb-13 14:28N 35°36' E 139°46'1 1.5
2018-Feb-13 14:00N 35°36' E 139°47'0 0.2
2018-Feb-13 13:30N 35°36' E 139°47'0 0.1
2018-Feb-13 13:00N 35°36' E 139°47'0 0.8
2018-Feb-13 12:29N 35°37' E 139°46'2 3.5
2018-Feb-13 11:59N 35°38' E 139°45'0 0.0
2018-Feb-13 11:30N 35°38' E 139°45'0 0.0
2018-Feb-13 11:01N 35°38' E 139°45'0 0.0
2018-Feb-13 10:27N 35°38' E 139°45'2 4.1
2018-Feb-13 09:57N 35°36' E 139°46'1 1.3
2018-Feb-13 09:30N 35°36' E 139°47'3 6.3
2018-Feb-13 09:00N 35°34' E 139°49'3 5.3
2018-Feb-13 08:26N 35°36' E 139°46'0 0.0
2018-Feb-13 08:00N 35°36' E 139°46'0 0.0
2018-Feb-13 07:30N 35°36' E 139°46'1 2.0
2018-Feb-13 07:00N 35°37' E 139°47'2 3.6
2018-Feb-13 06:30N 35°38' E 139°45'0 0.0
2018-Feb-13 05:53N 35°38' E 139°45'0 0.0
2018-Feb-13 05:30N 35°38' E 139°45'0 0.0
2018-Feb-13 04:59N 35°38' E 139°45'0 0.0
2018-Feb-13 03:50N 35°38' E 139°45'0 0.0
2018-Feb-13 03:28N 35°38' E 139°45'0 0.0
2018-Feb-13 00:37N 35°38' E 139°45'0 0.0
2018-Feb-13 00:22N 35°38' E 139°45'0 0.0
2018-Feb-12 23:56N 35°38' E 139°45'2 3.7
2018-Feb-12 23:26N 35°36' E 139°46'0 0.9
2018-Feb-12 22:59N 35°36' E 139°46'2 4.8
2018-Feb-12 22:30N 35°34' E 139°48'1 1.8
2018-Feb-12 22:00N 35°34' E 139°49'3 5.9
2018-Feb-12 21:30N 35°36' E 139°47'2 4.3
2018-Feb-12 20:57N 35°38' E 139°45'0 0.0
2018-Feb-12 20:24N 35°38' E 139°45'0 0.0
2018-Feb-12 19:59N 35°38' E 139°45'0 0.0
2018-Feb-12 19:28N 35°38' E 139°45'0 0.0
2018-Feb-12 19:00N 35°38' E 139°45'0 0.0
2018-Feb-12 18:31N 35°38' E 139°45'0 0.0
2018-Feb-12 17:57N 35°38' E 139°45'0 0.0
2018-Feb-12 17:27N 35°38' E 139°45'0 0.0
2018-Feb-12 16:59N 35°38' E 139°45'0 0.0
2018-Feb-12 16:30N 35°38' E 139°45'0 0.0
2018-Feb-12 15:58N 35°38' E 139°45'0 0.0
2018-Feb-12 15:30N 35°38' E 139°45'0 0.0
2018-Feb-12 14:54N 35°38' E 139°45'0 0.0
2018-Feb-12 14:29N 35°38' E 139°45'0 0.0
2018-Feb-12 13:59N 35°38' E 139°45'0 0.0
2018-Feb-12 13:30N 35°38' E 139°45'0 0.0
2018-Feb-12 12:51N 35°38' E 139°45'0 0.0
2018-Feb-12 11:42N 35°38' E 139°45'0 0.0
2018-Feb-12 11:29N 35°38' E 139°45'0 0.0
2018-Feb-12 10:59N 35°38' E 139°45'0 0.0
2018-Feb-12 09:49N 35°38' E 139°45'1 3.2
2018-Feb-12 09:30N 35°37' E 139°46'2 4.7
2018-Feb-12 08:59N 35°35' E 139°47'1 1.3
2018-Feb-12 08:30N 35°35' E 139°48'2 4.1
2018-Feb-12 08:00N 35°37' E 139°47'2 3.4
2018-Feb-12 07:27N 35°38' E 139°45'0 0.0
2018-Feb-12 07:00N 35°38' E 139°45'0 0.0
2018-Feb-12 05:41N 35°38' E 139°45'0 0.0
2018-Feb-12 05:26N 35°38' E 139°45'0 0.0
2018-Feb-12 04:48N 35°38' E 139°45'0 0.0
2018-Feb-12 04:17N 35°38' E 139°45'0 0.0
2018-Feb-12 03:50N 35°38' E 139°45'0 0.0
2018-Feb-12 03:30N 35°38' E 139°45'0 0.0
2018-Feb-12 02:48N 35°38' E 139°45'0 0.0
2018-Feb-12 02:15N 35°38' E 139°45'0 0.0
2018-Feb-12 02:00N 35°38' E 139°45'0 0.0
2018-Feb-12 01:17N 35°38' E 139°45'0 0.0
2018-Feb-12 00:56N 35°38' E 139°45'0 0.0
2018-Feb-12 00:04N 35°38' E 139°45'0 0.0
2018-Feb-11 23:47N 35°38' E 139°45'0 0.0
2018-Feb-11 23:23N 35°38' E 139°45'0 0.0
2018-Feb-11 22:56N 35°38' E 139°45'2 4.1
2018-Feb-11 22:29N 35°37' E 139°47'2 3.5
2018-Feb-11 22:00N 35°35' E 139°48'3 5.5
2018-Feb-11 21:30N 35°34' E 139°51'3 5.4
2018-Feb-11 21:01N 35°35' E 139°48'1 2.7
2018-Feb-11 20:30N 35°36' E 139°47'0 0.4
2018-Feb-11 20:00N 35°36' E 139°47'2 4.0
2018-Feb-11 19:28N 35°38' E 139°45'0 0.0
2018-Feb-11 19:00N 35°38' E 139°45'0 0.0
2018-Feb-11 18:30N 35°38' E 139°45'0 0.0
2018-Feb-11 17:56N 35°38' E 139°45'0 0.0
2018-Feb-11 17:31N 35°38' E 139°45'0 0.0
2018-Feb-11 17:00N 35°38' E 139°45'0 0.0
2018-Feb-11 16:30N 35°38' E 139°45'0 0.0
2018-Feb-11 15:59N 35°38' E 139°45'0 0.0
2018-Feb-11 15:31N 35°38' E 139°45'0 0.0
2018-Feb-11 15:00N 35°38' E 139°45'0 0.0
2018-Feb-11 14:30N 35°38' E 139°45'0 0.0
2018-Feb-11 13:57N 35°38' E 139°45'0 0.0
2018-Feb-11 13:30N 35°38' E 139°45'0 0.0
2018-Feb-11 12:56N 35°38' E 139°45'0 0.0
2018-Feb-11 12:30N 35°38' E 139°45'0 0.0
2018-Feb-11 12:00N 35°38' E 139°45'0 0.0
2018-Feb-11 11:29N 35°38' E 139°45'0 0.0
2018-Feb-11 10:58N 35°38' E 139°45'0 0.0
2018-Feb-11 10:19N 35°38' E 139°45'0 0.0
2018-Feb-11 09:48N 35°38' E 139°45'0 0.0
2018-Feb-11 08:39N 35°38' E 139°45'0 0.0
2018-Feb-11 08:29N 35°38' E 139°45'0 0.0
2018-Feb-11 07:58N 35°38' E 139°45'0 0.0
2018-Feb-11 05:51N 35°38' E 139°45'0 0.0
2018-Feb-11 00:26N 35°38' E 139°45'0 0.0
2018-Feb-11 00:00N 35°38' E 139°45'0 0.0
2018-Feb-10 23:24N 35°38' E 139°45'0 0.0
2018-Feb-10 23:01N 35°38' E 139°45'0 0.0
2018-Feb-10 22:29N 35°38' E 139°45'0 0.0
2018-Feb-10 21:59N 35°38' E 139°45'0 0.0
2018-Feb-10 21:31N 35°38' E 139°45'0 0.0
2018-Feb-10 21:00N 35°38' E 139°45'0 0.0
2018-Feb-10 20:29N 35°38' E 139°45'0 0.0
2018-Feb-10 19:59N 35°38' E 139°45'0 0.0
2018-Feb-10 19:28N 35°38' E 139°45'0 0.0
2018-Feb-10 19:00N 35°38' E 139°45'0 0.0
2018-Feb-10 18:30N 35°38' E 139°45'0 0.0
2018-Feb-10 17:21N 35°38' E 139°45'0 0.0
2018-Feb-10 17:00N 35°38' E 139°45'0 0.0
2018-Feb-10 16:20N 35°38' E 139°45'0 0.0
2018-Feb-10 15:56N 35°38' E 139°45'0 0.0
2018-Feb-10 15:30N 35°38' E 139°45'0 0.0
2018-Feb-10 15:00N 35°38' E 139°45'0 0.0
2018-Feb-10 14:30N 35°38' E 139°45'0 0.0
2018-Feb-10 13:53N 35°38' E 139°45'0 0.0
2018-Feb-10 13:30N 35°38' E 139°45'0 0.0
2018-Feb-10 12:58N 35°38' E 139°45'0 0.0
2018-Feb-10 12:30N 35°38' E 139°45'0 0.0
2018-Feb-10 11:52N 35°38' E 139°45'0 0.0
2018-Feb-10 11:30N 35°38' E 139°45'0 0.0
2018-Feb-10 11:00N 35°38' E 139°45'0 0.0
2018-Feb-10 10:25N 35°38' E 139°45'0 0.0
2018-Feb-10 09:50N 35°38' E 139°45'0 0.0
2018-Feb-10 09:30N 35°38' E 139°45'0 0.0
2018-Feb-10 08:59N 35°38' E 139°45'0 0.0
2018-Feb-10 08:30N 35°38' E 139°45'0 0.0
2018-Feb-10 07:54N 35°38' E 139°45'0 0.0
2018-Feb-10 07:30N 35°38' E 139°45'0 0.0
2018-Feb-10 06:59N 35°38' E 139°45'0 0.0
2018-Feb-10 06:30N 35°38' E 139°45'0 0.0
2018-Feb-10 06:00N 35°38' E 139°45'0 0.0
2018-Feb-10 05:03N 35°38' E 139°45'0 0.0
2018-Feb-10 04:55N 35°38' E 139°45'0 0.0
2018-Feb-10 04:30N 35°38' E 139°45'0 0.0
2018-Feb-10 02:54N 35°38' E 139°45'0 0.0
2018-Feb-10 02:25N 35°38' E 139°45'0 0.0
2018-Feb-10 01:47N 35°38' E 139°45'0 0.0
2018-Feb-10 00:49N 35°38' E 139°45'0 0.0
2018-Feb-10 00:18N 35°38' E 139°45'0 0.0
2018-Feb-10 00:00N 35°38' E 139°45'0 0.0
2018-Feb-09 23:30N 35°38' E 139°45'1 2.1
2018-Feb-09 22:58N 35°37' E 139°46'1 7.1
2018-Feb-09 22:46N 35°36' E 139°46'2 3.1
2018-Feb-09 22:01N 35°34' E 139°49'5 0.2
2018-Feb-08 20:00N 35°38' E 139°45'  
Track history (hours):
 
Tides and Currents Weather Stations Pressure Air Temp Water Temp Dewpoint Dewpoint Depression Visibility Wind Speed Wind Dir Waves Ship Positions

Fuji Maru

Last reported at 2018-Feb-18 13:49 UTC. Time now 2018-Feb-18 18:29 UTC.
Position N 35°38' E 139°45'.

Length 38 m; draft 4.4 m.

Type: Tug. MMSI: 431001102.

Date/timePositionNaut miles runAvg speedWind from/ knotsBaromVisibWave heightAir tempDewpointWater temp
2018-Feb-18 13:49N 35°38' E 139°45'3 8.0
2018-Feb-18 13:30N 35°36' E 139°47'0 0.4
2018-Feb-18 12:54N 35°36' E 139°46'1 3.2
2018-Feb-18 12:29N 35°37' E 139°46'1 0.7
2018-Feb-18 11:04N 35°38' E 139°45'1 9.1
2018-Feb-18 11:00N 35°38' E 139°46'1 2.5
2018-Feb-18 10:30N 35°37' E 139°47'2 3.6
2018-Feb-18 10:01N 35°35' E 139°48'2 3.3
2018-Feb-18 09:31N 35°34' E 139°49'3 6.6
2018-Feb-18 09:00N 35°36' E 139°46'1 1.3
2018-Feb-18 08:30N 35°37' E 139°46'1 1.3
2018-Feb-18 08:00N 35°38' E 139°46'1 2.9
2018-Feb-18 07:30N 35°36' E 139°46'1 2.4
2018-Feb-18 07:00N 35°37' E 139°46'1 0.1
2018-Feb-18 00:33N 35°38' E 139°45'0 0.0
2018-Feb-17 22:35N 35°38' E 139°45'0 0.0
2018-Feb-17 22:14N 35°38' E 139°45'0 0.0
2018-Feb-17 21:52N 35°38' E 139°45'0 0.0
2018-Feb-17 21:25N 35°38' E 139°45'0 0.0
2018-Feb-17 20:45N 35°38' E 139°45'0 0.0
2018-Feb-17 20:27N 35°38' E 139°45'0 0.0
2018-Feb-17 20:00N 35°38' E 139°45'0 0.0
2018-Feb-17 19:30N 35°38' E 139°45'0 0.0
2018-Feb-17 13:28N 35°38' E 139°46'2 4.2
2018-Feb-17 13:00N 35°36' E 139°46'1 0.4
2018-Feb-17 11:21N 35°36' E 139°46'2 4.4
2018-Feb-17 10:57N 35°37' E 139°47'1 2.2
2018-Feb-17 10:29N 35°36' E 139°48'1 1.4
2018-Feb-17 10:00N 35°36' E 139°47'1 3.0
2018-Feb-17 09:30N 35°38' E 139°46'1 1.3
2018-Feb-17 08:56N 35°38' E 139°45'0 0.0
2018-Feb-17 08:30N 35°38' E 139°45'0 0.0
2018-Feb-17 07:59N 35°38' E 139°45'0 0.0
2018-Feb-17 07:30N 35°38' E 139°45'0 0.0
2018-Feb-17 07:00N 35°38' E 139°45'0 0.0
2018-Feb-17 06:28N 35°38' E 139°45'0 0.0
2018-Feb-17 05:59N 35°38' E 139°45'0 0.0
2018-Feb-17 05:29N 35°38' E 139°45'0 0.0
2018-Feb-17 04:59N 35°38' E 139°45'0 0.0
2018-Feb-17 04:30N 35°38' E 139°45'0 0.0
2018-Feb-17 04:00N 35°38' E 139°45'0 0.0
2018-Feb-17 03:31N 35°38' E 139°45'0 0.0
2018-Feb-17 03:00N 35°38' E 139°45'0 0.0
2018-Feb-17 02:25N 35°38' E 139°45'0 0.0
2018-Feb-17 01:59N 35°38' E 139°45'0 0.0
2018-Feb-17 01:29N 35°38' E 139°45'0 0.0
2018-Feb-17 00:59N 35°38' E 139°45'0 0.0
2018-Feb-17 00:29N 35°38' E 139°45'0 0.0
2018-Feb-16 23:58N 35°38' E 139°45'0 0.0
2018-Feb-16 23:20N 35°38' E 139°45'0 0.0
2018-Feb-16 22:57N 35°38' E 139°45'0 0.0
2018-Feb-16 22:29N 35°38' E 139°45'2 3.6
2018-Feb-16 21:59N 35°37' E 139°47'1 2.6
2018-Feb-16 21:30N 35°35' E 139°47'2 4.8
2018-Feb-16 21:00N 35°34' E 139°50'3 6.6
2018-Feb-16 20:30N 35°36' E 139°46'1 2.2
2018-Feb-16 20:00N 35°37' E 139°46'1 2.3
2018-Feb-16 19:29N 35°38' E 139°45'0 0.0
2018-Feb-16 19:00N 35°38' E 139°45'0 0.0
2018-Feb-16 18:30N 35°38' E 139°45'0 0.0
2018-Feb-16 18:00N 35°38' E 139°45'0 0.0
2018-Feb-16 11:10N 35°38' E 139°45'0 0.0
2018-Feb-16 09:16N 35°38' E 139°45'0 0.0
2018-Feb-16 08:34N 35°38' E 139°45'0 0.0
2018-Feb-16 08:28N 35°38' E 139°45'0 0.0
2018-Feb-16 05:35N 35°38' E 139°45'0 0.0
2018-Feb-16 05:23N 35°38' E 139°45'0 0.0
2018-Feb-16 02:43N 35°38' E 139°45'0 0.0
2018-Feb-16 02:26N 35°38' E 139°45'0 0.0
2018-Feb-16 00:51N 35°38' E 139°45'0 0.0
2018-Feb-16 00:19N 35°38' E 139°45'0 0.0
2018-Feb-15 23:14N 35°38' E 139°45'0 0.0
2018-Feb-15 22:56N 35°38' E 139°45'0 0.0
2018-Feb-15 22:28N 35°38' E 139°45'0 0.0
2018-Feb-15 21:58N 35°38' E 139°45'1 2.8
2018-Feb-15 21:30N 35°37' E 139°46'1 1.6
2018-Feb-15 21:00N 35°36' E 139°47'1 2.7
2018-Feb-15 20:30N 35°38' E 139°46'1 1.1
2018-Feb-15 19:53N 35°38' E 139°45'0 0.0
2018-Feb-15 19:30N 35°38' E 139°45'0 0.0
2018-Feb-15 18:59N 35°38' E 139°45'0 0.0
2018-Feb-15 17:52N 35°38' E 139°45'0 0.0
2018-Feb-15 13:20N 35°38' E 139°45'0 0.0
2018-Feb-15 12:52N 35°38' E 139°45'0 0.0
2018-Feb-15 12:14N 35°38' E 139°45'0 0.0
2018-Feb-15 11:16N 35°38' E 139°45'0 0.0
2018-Feb-15 10:59N 35°38' E 139°45'0 0.0
2018-Feb-15 10:20N 35°38' E 139°45'0 0.0
2018-Feb-15 09:59N 35°38' E 139°45'0 0.0
2018-Feb-15 09:30N 35°38' E 139°45'0 0.0
2018-Feb-15 06:16N 35°38' E 139°45'0 0.0
2018-Feb-15 06:00N 35°38' E 139°45'0 0.0
2018-Feb-15 05:30N 35°38' E 139°45'0 0.0
2018-Feb-15 01:53N 35°38' E 139°45'0 0.0
2018-Feb-14 23:32N 35°38' E 139°45'0 8.2
2018-Feb-14 23:30N 35°38' E 139°46'2 3.3
2018-Feb-14 23:00N 35°37' E 139°47'3 5.1
2018-Feb-14 22:30N 35°34' E 139°48'2 3.6
2018-Feb-14 22:01N 35°35' E 139°47'0 0.2
2018-Feb-14 20:41N 35°36' E 139°46'1 3.5
2018-Feb-14 20:30N 35°36' E 139°47'1 1.0
2018-Feb-14 19:57N 35°36' E 139°46'2 4.3
2018-Feb-14 19:30N 35°38' E 139°46'1 0.7
2018-Feb-14 18:41N 35°38' E 139°45'0 0.0
2018-Feb-14 18:19N 35°38' E 139°45'0 0.0
2018-Feb-14 17:58N 35°38' E 139°45'0 0.0
2018-Feb-14 17:18N 35°38' E 139°45'0 0.0
2018-Feb-14 16:50N 35°38' E 139°45'0 0.0
2018-Feb-14 16:23N 35°38' E 139°45'0 0.0
2018-Feb-14 13:51N 35°38' E 139°45'0 0.0
2018-Feb-14 13:24N 35°38' E 139°45'0 0.0
2018-Feb-14 12:45N 35°38' E 139°45'0 0.0
2018-Feb-14 12:24N 35°38' E 139°45'0 0.0
2018-Feb-14 06:57N 35°38' E 139°45'0 0.0
2018-Feb-14 06:26N 35°38' E 139°45'0 0.0
2018-Feb-14 05:59N 35°38' E 139°45'0 0.0
2018-Feb-14 05:28N 35°38' E 139°45'0 0.0
2018-Feb-14 04:57N 35°38' E 139°45'0 0.0
2018-Feb-14 04:29N 35°38' E 139°45'0 0.0
2018-Feb-14 03:58N 35°38' E 139°45'0 0.0
2018-Feb-14 03:26N 35°38' E 139°45'0 0.0
2018-Feb-14 02:57N 35°38' E 139°45'0 0.0
2018-Feb-14 02:29N 35°38' E 139°45'0 0.0
2018-Feb-14 02:00N 35°38' E 139°45'0 0.0
2018-Feb-14 01:30N 35°38' E 139°45'0 0.0
2018-Feb-14 00:56N 35°38' E 139°45'0 0.0
2018-Feb-14 00:25N 35°38' E 139°45'0 0.0
2018-Feb-13 23:52N 35°38' E 139°45'0 0.0
2018-Feb-13 23:30N 35°38' E 139°45'0 0.0
2018-Feb-13 23:00N 35°38' E 139°45'0 0.0
2018-Feb-13 22:28N 35°38' E 139°45'0 0.0
2018-Feb-13 21:58N 35°38' E 139°45'0 0.0
2018-Feb-13 21:30N 35°38' E 139°45'0 0.0
2018-Feb-13 20:59N 35°38' E 139°45'0 0.0
2018-Feb-13 20:30N 35°38' E 139°45'0 0.0
2018-Feb-13 19:59N 35°38' E 139°45'0 0.0
2018-Feb-13 19:30N 35°38' E 139°45'0 0.0
2018-Feb-13 19:00N 35°38' E 139°45'0 0.0
2018-Feb-13 18:29N 35°38' E 139°45'0 0.0
2018-Feb-13 17:59N 35°38' E 139°45'0 0.0
2018-Feb-13 17:30N 35°38' E 139°45'0 0.0
2018-Feb-13 17:00N 35°38' E 139°45'2 4.5
2018-Feb-13 16:30N 35°36' E 139°46'0 0.4
2018-Feb-13 15:56N 35°36' E 139°46'2 4.8
2018-Feb-13 15:30N 35°35' E 139°48'2 3.8
2018-Feb-13 15:00N 35°36' E 139°46'0 0.0
2018-Feb-13 14:28N 35°36' E 139°46'1 1.5
2018-Feb-13 14:00N 35°36' E 139°47'0 0.2
2018-Feb-13 13:30N 35°36' E 139°47'0 0.1
2018-Feb-13 13:00N 35°36' E 139°47'0 0.8
2018-Feb-13 12:29N 35°37' E 139°46'2 3.5
2018-Feb-13 11:59N 35°38' E 139°45'0 0.0
2018-Feb-13 11:30N 35°38' E 139°45'0 0.0
2018-Feb-13 11:01N 35°38' E 139°45'0 0.0
2018-Feb-13 10:27N 35°38' E 139°45'2 4.1
2018-Feb-13 09:57N 35°36' E 139°46'1 1.3
2018-Feb-13 09:30N 35°36' E 139°47'3 6.3
2018-Feb-13 09:00N 35°34' E 139°49'3 5.3
2018-Feb-13 08:26N 35°36' E 139°46'0 0.0
2018-Feb-13 08:00N 35°36' E 139°46'0 0.0
2018-Feb-13 07:30N 35°36' E 139°46'1 2.0
2018-Feb-13 07:00N 35°37' E 139°47'2 3.6
2018-Feb-13 06:30N 35°38' E 139°45'0 0.0
2018-Feb-13 05:53N 35°38' E 139°45'0 0.0
2018-Feb-13 05:30N 35°38' E 139°45'0 0.0
2018-Feb-13 04:59N 35°38' E 139°45'0 0.0
2018-Feb-13 03:50N 35°38' E 139°45'0 0.0
2018-Feb-13 03:28N 35°38' E 139°45'0 0.0
2018-Feb-13 00:37N 35°38' E 139°45'0 0.0
2018-Feb-13 00:22N 35°38' E 139°45'0 0.0
2018-Feb-12 23:56N 35°38' E 139°45'2 3.7
2018-Feb-12 23:26N 35°36' E 139°46'0 0.9
2018-Feb-12 22:59N 35°36' E 139°46'2 4.8
2018-Feb-12 22:30N 35°34' E 139°48'1 1.8
2018-Feb-12 22:00N 35°34' E 139°49'3 5.9
2018-Feb-12 21:30N 35°36' E 139°47'2 4.3
2018-Feb-12 20:57N 35°38' E 139°45'0 0.0
2018-Feb-12 20:24N 35°38' E 139°45'0 0.0
2018-Feb-12 19:59N 35°38' E 139°45'0 0.0
2018-Feb-12 19:28N 35°38' E 139°45'0 0.0
2018-Feb-12 19:00N 35°38' E 139°45'0 0.0
2018-Feb-12 18:31N 35°38' E 139°45'0 0.0
2018-Feb-12 17:57N 35°38' E 139°45'0 0.0
2018-Feb-12 17:27N 35°38' E 139°45'0 0.0
2018-Feb-12 16:59N 35°38' E 139°45'0 0.0
2018-Feb-12 16:30N 35°38' E 139°45'0 0.0
2018-Feb-12 15:58N 35°38' E 139°45'0 0.0
2018-Feb-12 15:30N 35°38' E 139°45'0 0.0
2018-Feb-12 14:54N 35°38' E 139°45'0 0.0
2018-Feb-12 14:29N 35°38' E 139°45'0 0.0
2018-Feb-12 13:59N 35°38' E 139°45'0 0.0
2018-Feb-12 13:30N 35°38' E 139°45'0 0.0
2018-Feb-12 12:51N 35°38' E 139°45'0 0.0
2018-Feb-12 11:42N 35°38' E 139°45'0 0.0
2018-Feb-12 11:29N 35°38' E 139°45'0 0.0
2018-Feb-12 10:59N 35°38' E 139°45'0 0.0
2018-Feb-12 09:49N 35°38' E 139°45'1 3.2
2018-Feb-12 09:30N 35°37' E 139°46'2 4.7
2018-Feb-12 08:59N 35°35' E 139°47'1 1.3
2018-Feb-12 08:30N 35°35' E 139°48'2 4.1
2018-Feb-12 08:00N 35°37' E 139°47'2 3.4
2018-Feb-12 07:27N 35°38' E 139°45'0 0.0
2018-Feb-12 07:00N 35°38' E 139°45'0 0.0
2018-Feb-12 05:41N 35°38' E 139°45'0 0.0
2018-Feb-12 05:26N 35°38' E 139°45'0 0.0
2018-Feb-12 04:48N 35°38' E 139°45'0 0.0
2018-Feb-12 04:17N 35°38' E 139°45'0 0.0
2018-Feb-12 03:50N 35°38' E 139°45'0 0.0
2018-Feb-12 03:30N 35°38' E 139°45'0 0.0
2018-Feb-12 02:48N 35°38' E 139°45'0 0.0
2018-Feb-12 02:15N 35°38' E 139°45'0 0.0
2018-Feb-12 02:00N 35°38' E 139°45'0 0.0
2018-Feb-12 01:17N 35°38' E 139°45'0 0.0
2018-Feb-12 00:56N 35°38' E 139°45'0 0.0
2018-Feb-12 00:04N 35°38' E 139°45'0 0.0
2018-Feb-11 23:47N 35°38' E 139°45'0 0.0
2018-Feb-11 23:23N 35°38' E 139°45'0 0.0
2018-Feb-11 22:56N 35°38' E 139°45'2 4.1
2018-Feb-11 22:29N 35°37' E 139°47'2 3.5
2018-Feb-11 22:00N 35°35' E 139°48'3 5.5
2018-Feb-11 21:30N 35°34' E 139°51'3 5.4
2018-Feb-11 21:01N 35°35' E 139°48'1 2.7
2018-Feb-11 20:30N 35°36' E 139°47'0 0.4
2018-Feb-11 20:00N 35°36' E 139°47'2 4.0
2018-Feb-11 19:28N 35°38' E 139°45'0 0.0
2018-Feb-11 19:00N 35°38' E 139°45'0 0.0
2018-Feb-11 18:30N 35°38' E 139°45'0 0.0
2018-Feb-11 17:56N 35°38' E 139°45'0 0.0
2018-Feb-11 17:31N 35°38' E 139°45'0 0.0
2018-Feb-11 17:00N 35°38' E 139°45'0 0.0
2018-Feb-11 16:30N 35°38' E 139°45'0 0.0
2018-Feb-11 15:59N 35°38' E 139°45'0 0.0
2018-Feb-11 15:31N 35°38' E 139°45'0 0.0
2018-Feb-11 15:00N 35°38' E 139°45'0 0.0
2018-Feb-11 14:30N 35°38' E 139°45'0 0.0
2018-Feb-11 13:57N 35°38' E 139°45'0 0.0
2018-Feb-11 13:30N 35°38' E 139°45'0 0.0
2018-Feb-11 12:56N 35°38' E 139°45'0 0.0
2018-Feb-11 12:30N 35°38' E 139°45'0 0.0
2018-Feb-11 12:00N 35°38' E 139°45'0 0.0
2018-Feb-11 11:29N 35°38' E 139°45'0 0.0
2018-Feb-11 10:58N 35°38' E 139°45'0 0.0
2018-Feb-11 10:19N 35°38' E 139°45'0 0.0
2018-Feb-11 09:48N 35°38' E 139°45'0 0.0
2018-Feb-11 08:39N 35°38' E 139°45'0 0.0
2018-Feb-11 08:29N 35°38' E 139°45'0 0.0
2018-Feb-11 07:58N 35°38' E 139°45'0 0.0
2018-Feb-11 05:51N 35°38' E 139°45'0 0.0
2018-Feb-11 00:26N 35°38' E 139°45'0 0.0
2018-Feb-11 00:00N 35°38' E 139°45'0 0.0
2018-Feb-10 23:24N 35°38' E 139°45'0 0.0
2018-Feb-10 23:01N 35°38' E 139°45'0 0.0
2018-Feb-10 22:29N 35°38' E 139°45'0 0.0
2018-Feb-10 21:59N 35°38' E 139°45'0 0.0
2018-Feb-10 21:31N 35°38' E 139°45'0 0.0
2018-Feb-10 21:00N 35°38' E 139°45'0 0.0
2018-Feb-10 20:29N 35°38' E 139°45'0 0.0
2018-Feb-10 19:59N 35°38' E 139°45'0 0.0
2018-Feb-10 19:28N 35°38' E 139°45'0 0.0
2018-Feb-10 19:00N 35°38' E 139°45'0 0.0
2018-Feb-10 18:30N 35°38' E 139°45'0 0.0
2018-Feb-10 17:21N 35°38' E 139°45'0 0.0
2018-Feb-10 17:00N 35°38' E 139°45'0 0.0
2018-Feb-10 16:20N 35°38' E 139°45'0 0.0
2018-Feb-10 15:56N 35°38' E 139°45'0 0.0
2018-Feb-10 15:30N 35°38' E 139°45'0 0.0
2018-Feb-10 15:00N 35°38' E 139°45'0 0.0
2018-Feb-10 14:30N 35°38' E 139°45'0 0.0
2018-Feb-10 13:53N 35°38' E 139°45'0 0.0
2018-Feb-10 13:30N 35°38' E 139°45'0 0.0
2018-Feb-10 12:58N 35°38' E 139°45'0 0.0
2018-Feb-10 12:30N 35°38' E 139°45'0 0.0
2018-Feb-10 11:52N 35°38' E 139°45'0 0.0
2018-Feb-10 11:30N 35°38' E 139°45'0 0.0
2018-Feb-10 11:00N 35°38' E 139°45'0 0.0
2018-Feb-10 10:25N 35°38' E 139°45'0 0.0
2018-Feb-10 09:50N 35°38' E 139°45'0 0.0
2018-Feb-10 09:30N 35°38' E 139°45'0 0.0
2018-Feb-10 08:59N 35°38' E 139°45'0 0.0
2018-Feb-10 08:30N 35°38' E 139°45'0 0.0
2018-Feb-10 07:54N 35°38' E 139°45'0 0.0
2018-Feb-10 07:30N 35°38' E 139°45'0 0.0
2018-Feb-10 06:59N 35°38' E 139°45'0 0.0
2018-Feb-10 06:30N 35°38' E 139°45'0 0.0
2018-Feb-10 06:00N 35°38' E 139°45'0 0.0
2018-Feb-10 05:03N 35°38' E 139°45'0 0.0
2018-Feb-10 04:55N 35°38' E 139°45'0 0.0
2018-Feb-10 04:30N 35°38' E 139°45'0 0.0
2018-Feb-10 02:54N 35°38' E 139°45'0 0.0
2018-Feb-10 02:25N 35°38' E 139°45'0 0.0
2018-Feb-10 01:47N 35°38' E 139°45'0 0.0
2018-Feb-10 00:49N 35°38' E 139°45'0 0.0
2018-Feb-10 00:18N 35°38' E 139°45'0 0.0
2018-Feb-10 00:00N 35°38' E 139°45'0 0.0
2018-Feb-09 23:30N 35°38' E 139°45'1 2.1
2018-Feb-09 22:58N 35°37' E 139°46'1 7.1
2018-Feb-09 22:46N 35°36' E 139°46'2 3.1
2018-Feb-09 22:01N 35°34' E 139°49'5 0.2
2018-Feb-08 20:00N 35°38' E 139°45'  

Dump ship's entire track history